createdAt,value
2017-08-26T00:01:46.715Z,91.30
2017-08-26T00:04:14.220Z,91.20
2017-08-26T00:06:41.723Z,91.40
2017-08-26T00:09:09.826Z,91.50
2017-08-26T00:11:38.186Z,91.70
2017-08-26T00:14:05.699Z,91.80
2017-08-26T00:16:34.130Z,91.80
2017-08-26T00:19:02.267Z,91.80
2017-08-26T00:21:33.764Z,91.50
2017-08-26T00:24:01.288Z,91.70
2017-08-26T00:26:29.574Z,92.00
2017-08-26T00:28:57.171Z,92.10
2017-08-26T00:31:25.066Z,91.90
2017-08-26T00:33:52.589Z,91.80
2017-08-26T00:36:20.662Z,91.60
2017-08-26T00:38:50.524Z,91.10
2017-08-26T00:41:18.047Z,90.90
2017-08-26T00:43:45.646Z,90.70
2017-08-26T00:46:13.224Z,90.70
2017-08-26T00:48:41.290Z,90.30
2017-08-26T00:51:08.796Z,90.60
2017-08-26T00:53:36.358Z,90.20
2017-08-26T00:56:03.875Z,90.10
2017-08-26T00:58:31.708Z,90.10
2017-08-26T01:00:59.335Z,90.00
2017-08-26T01:03:27.085Z,89.90
2017-08-26T01:05:55.952Z,89.40
2017-08-26T01:08:26.557Z,89.40
2017-08-26T01:10:54.091Z,89.60
2017-08-26T01:13:21.610Z,90.10
2017-08-26T01:15:50.049Z,90.40
2017-08-26T01:18:18.347Z,90.50
2017-08-26T01:20:45.849Z,90.40
2017-08-26T01:23:16.162Z,90.40
2017-08-26T01:25:43.848Z,90.80
2017-08-26T01:28:11.352Z,90.80
2017-08-26T01:30:40.339Z,90.40
2017-08-26T01:33:07.875Z,90.40
2017-08-26T01:35:35.408Z,90.40
2017-08-26T01:38:03.847Z,90.30
2017-08-26T01:40:31.687Z,90.30
2017-08-26T01:42:59.202Z,90.60
2017-08-26T01:45:26.731Z,90.50
2017-08-26T01:47:54.247Z,90.40
2017-08-26T01:50:21.871Z,90.30
2017-08-26T01:52:52.411Z,90.40
2017-08-26T01:55:19.923Z,90.50
2017-08-26T01:57:48.176Z,90.50
2017-08-26T02:00:15.720Z,90.50
2017-08-26T02:02:43.409Z,90.40
2017-08-26T02:05:10.944Z,90.50
2017-08-26T02:07:38.455Z,90.50
2017-08-26T02:10:06.144Z,90.40
2017-08-26T02:12:33.905Z,90.30
2017-08-26T02:15:01.856Z,90.60
2017-08-26T02:17:29.358Z,90.60
2017-08-26T02:19:56.943Z,90.50
2017-08-26T02:22:28.186Z,90.40
2017-08-26T02:24:56.106Z,90.60
2017-08-26T02:27:23.616Z,90.50
2017-08-26T02:29:52.296Z,89.40
2017-08-26T02:32:19.864Z,89.40
2017-08-26T02:34:47.884Z,89.10
2017-08-26T02:37:15.786Z,89.50
2017-08-26T02:39:51.165Z,89.60
2017-08-26T02:42:18.672Z,90.00
2017-08-26T02:44:46.700Z,90.20
2017-08-26T02:47:15.128Z,90.50
2017-08-26T02:49:42.631Z,90.60
2017-08-26T02:52:11.881Z,90.80
2017-08-26T02:54:39.388Z,90.80
2017-08-26T02:57:06.920Z,91.00
2017-08-26T02:59:34.584Z,91.30
2017-08-26T03:02:02.095Z,91.30
2017-08-26T03:04:30.219Z,91.20
2017-08-26T03:06:57.740Z,91.10
2017-08-26T03:09:25.252Z,91.20
2017-08-26T03:11:56.746Z,91.10
2017-08-26T03:14:25.012Z,91.30
2017-08-26T03:16:52.573Z,91.70
2017-08-26T03:19:20.101Z,91.40
2017-08-26T03:21:47.897Z,91.50
2017-08-26T03:24:15.395Z,91.80
2017-08-26T03:26:42.913Z,91.80
2017-08-26T03:29:10.569Z,91.70
2017-08-26T03:31:39.025Z,91.50
2017-08-26T03:34:07.339Z,91.30
2017-08-26T03:36:35.135Z,91.30
2017-08-26T03:39:06.648Z,91.30
2017-08-26T03:41:34.265Z,91.50
2017-08-26T03:44:01.771Z,91.50
2017-08-26T03:46:29.275Z,91.60
2017-08-26T03:48:56.825Z,91.60
2017-08-26T03:51:24.335Z,91.60
2017-08-26T03:53:54.969Z,91.80
2017-08-26T03:56:22.552Z,92.00
2017-08-26T03:58:50.503Z,91.90
2017-08-26T04:01:18.191Z,92.00
2017-08-26T04:03:45.695Z,91.90
2017-08-26T04:06:13.247Z,92.20
2017-08-26T04:08:41.520Z,92.40
2017-08-26T04:11:09.083Z,92.40
2017-08-26T04:13:37.100Z,92.40
2017-08-26T04:16:04.619Z,92.30
2017-08-26T04:18:32.921Z,92.40
2017-08-26T04:21:00.502Z,92.40
2017-08-26T04:23:28.120Z,92.40
2017-08-26T04:25:55.924Z,92.50
2017-08-26T04:28:23.479Z,92.40
2017-08-26T04:30:51.153Z,92.40
2017-08-26T04:33:18.697Z,92.40
2017-08-26T04:35:46.221Z,92.30
2017-08-26T04:38:14.750Z,91.90
2017-08-26T04:40:42.296Z,91.80
2017-08-26T04:43:10.091Z,91.50
2017-08-26T04:45:37.599Z,91.40
2017-08-26T04:48:05.142Z,91.10
2017-08-26T04:50:32.684Z,90.60
2017-08-26T04:53:00.390Z,90.70
2017-08-26T04:55:28.269Z,90.70
2017-08-26T04:57:55.823Z,90.30
2017-08-26T05:00:24.127Z,89.80
2017-08-26T05:02:51.712Z,88.50
2017-08-26T05:05:19.278Z,87.00
2017-08-26T05:07:47.556Z,84.20
2017-08-26T05:10:18.436Z,84.10
2017-08-26T05:12:49.880Z,82.50
2017-08-26T05:15:17.379Z,81.00
2017-08-26T05:17:44.966Z,79.00
2017-08-26T05:20:12.565Z,78.00
2017-08-26T05:22:40.087Z,77.80
2017-08-26T05:25:09.317Z,74.20
2017-08-26T05:27:40.495Z,74.10
2017-08-26T05:30:08.051Z,72.80
2017-08-26T05:32:35.556Z,72.40
2017-08-26T05:35:03.200Z,72.10
2017-08-26T05:37:30.897Z,70.40
2017-08-26T05:39:58.408Z,69.50
2017-08-26T05:42:30.321Z,67.20
2017-08-26T05:44:58.394Z,66.60
2017-08-26T05:47:26.217Z,66.00
2017-08-26T05:49:53.729Z,65.80
2017-08-26T05:52:21.260Z,65.00
2017-08-26T05:54:49.203Z,64.70
2017-08-26T05:57:21.423Z,63.30
2017-08-26T05:59:48.919Z,63.30
2017-08-26T06:02:16.803Z,63.00
2017-08-26T06:04:44.308Z,65.00
2017-08-26T06:07:12.607Z,66.90
2017-08-26T06:09:40.145Z,68.00
2017-08-26T06:12:07.659Z,68.90
2017-08-26T06:14:35.170Z,70.50
2017-08-26T06:17:02.914Z,71.50
2017-08-26T06:19:30.451Z,71.90
2017-08-26T06:21:58.092Z,71.80
2017-08-26T06:24:26.499Z,71.40
2017-08-26T06:26:54.015Z,70.30
2017-08-26T06:29:21.558Z,70.60
2017-08-26T06:31:49.133Z,70.20
2017-08-26T06:34:16.645Z,71.00
2017-08-26T06:36:44.146Z,70.90
2017-08-26T06:39:12.627Z,69.40
2017-08-26T06:41:44.443Z,70.10
2017-08-26T06:44:11.955Z,70.10
2017-08-26T06:46:39.470Z,70.10
2017-08-26T06:49:07.099Z,69.10
2017-08-26T06:51:35.602Z,67.80
2017-08-26T06:54:03.516Z,67.80
2017-08-26T06:56:31.011Z,67.60
2017-08-26T06:58:59.319Z,68.40
2017-08-26T07:01:26.877Z,67.30
2017-08-26T07:03:54.371Z,67.50
2017-08-26T07:06:21.877Z,67.40
2017-08-26T07:08:49.543Z,68.00
2017-08-26T07:11:17.064Z,68.10
2017-08-26T07:13:44.572Z,66.70
2017-08-26T07:16:13.004Z,66.60
2017-08-26T07:18:40.515Z,66.30
2017-08-26T07:21:08.040Z,65.90
2017-08-26T07:23:35.650Z,66.10
2017-08-26T07:26:03.268Z,66.50
2017-08-26T07:28:30.951Z,66.30
2017-08-26T07:30:58.456Z,65.40
2017-08-26T07:33:27.509Z,65.10
2017-08-26T07:35:55.040Z,65.10
2017-08-26T07:38:22.646Z,65.20
2017-08-26T07:40:50.160Z,65.70
2017-08-26T07:43:17.934Z,65.90
2017-08-26T07:45:46.031Z,65.10
2017-08-26T07:48:13.536Z,65.00
2017-08-26T07:50:41.471Z,64.50
2017-08-26T07:53:09.027Z,64.30
2017-08-26T07:55:36.550Z,64.70
2017-08-26T07:58:04.503Z,64.70
2017-08-26T08:00:32.011Z,64.40
2017-08-26T08:02:59.511Z,64.70
2017-08-26T08:05:27.060Z,63.80
2017-08-26T08:07:54.600Z,63.90
2017-08-26T08:10:22.113Z,63.70
2017-08-26T08:12:49.918Z,63.70
2017-08-26T08:15:17.762Z,63.50
2017-08-26T08:17:45.418Z,64.40
2017-08-26T08:20:12.928Z,64.10
2017-08-26T08:22:41.348Z,63.40
2017-08-26T08:25:08.981Z,63.70
2017-08-26T08:27:36.483Z,64.40
2017-08-26T08:30:07.131Z,63.00
2017-08-26T08:32:35.056Z,63.60
2017-08-26T08:35:02.588Z,62.70
2017-08-26T08:37:30.575Z,62.90
2017-08-26T08:39:58.117Z,64.00
2017-08-26T08:42:25.815Z,63.30
2017-08-26T08:44:56.871Z,63.10
2017-08-26T08:47:25.015Z,62.50
2017-08-26T08:49:52.543Z,62.70
2017-08-26T08:52:20.964Z,63.70
2017-08-26T08:54:48.466Z,63.70
2017-08-26T08:57:16.125Z,62.30
2017-08-26T08:59:45.993Z,63.40
2017-08-26T09:02:14.884Z,63.40
2017-08-26T09:04:42.446Z,63.20
2017-08-26T09:07:09.952Z,64.00
2017-08-26T09:09:37.470Z,64.00
2017-08-26T09:12:05.132Z,64.00
2017-08-26T09:14:32.643Z,63.60
2017-08-26T09:17:04.976Z,63.20
2017-08-26T09:19:32.740Z,63.20
2017-08-26T09:22:00.247Z,63.30
2017-08-26T09:24:29.449Z,61.10
2017-08-26T09:26:57.235Z,61.00
2017-08-26T09:29:24.747Z,60.80
2017-08-26T09:31:54.906Z,58.90
2017-08-26T09:34:22.439Z,58.90
2017-08-26T09:36:49.951Z,58.70
2017-08-26T09:39:18.224Z,59.20
2017-08-26T09:41:45.936Z,59.20
2017-08-26T09:44:13.536Z,55.50
2017-08-26T09:46:41.196Z,57.60
2017-08-26T09:49:08.762Z,58.20
2017-08-26T09:51:37.309Z,57.00
2017-08-26T09:54:04.851Z,57.20
2017-08-26T09:56:33.142Z,57.70
2017-08-26T09:59:00.936Z,57.60
2017-08-26T10:01:28.722Z,56.90
2017-08-26T10:03:56.590Z,57.90
2017-08-26T10:06:24.099Z,57.80
2017-08-26T10:08:51.723Z,56.50
2017-08-26T10:11:19.241Z,56.60
2017-08-26T10:13:46.896Z,56.40
2017-08-26T10:16:14.403Z,56.40
2017-08-26T10:18:45.495Z,57.30
2017-08-26T10:21:13.004Z,56.40
2017-08-26T10:23:40.527Z,55.80
2017-08-26T10:26:08.085Z,55.70
2017-08-26T10:28:36.408Z,56.60
2017-08-26T10:31:10.808Z,56.60
2017-08-26T10:33:38.323Z,55.60
2017-08-26T10:36:05.820Z,55.80
2017-08-26T10:38:33.366Z,55.70
2017-08-26T10:41:01.867Z,55.50
2017-08-26T10:43:29.488Z,55.50
2017-08-26T10:45:57.315Z,55.40
2017-08-26T10:48:25.688Z,55.20
2017-08-26T10:50:53.244Z,55.10
2017-08-26T10:53:20.741Z,54.60
2017-08-26T10:55:49.939Z,54.00
2017-08-26T10:58:17.469Z,54.00
2017-08-26T11:00:45.031Z,53.70
2017-08-26T11:03:12.539Z,53.50
2017-08-26T11:05:40.080Z,54.20
2017-08-26T11:08:07.607Z,54.30
2017-08-26T11:10:35.262Z,54.90
2017-08-26T11:13:03.499Z,54.00
2017-08-26T11:15:31.051Z,53.50
2017-08-26T11:17:58.595Z,53.10
2017-08-26T11:20:26.173Z,52.60
2017-08-26T11:22:53.739Z,52.60
2017-08-26T11:25:22.222Z,52.20
2017-08-26T11:27:49.735Z,50.90
2017-08-26T11:30:17.243Z,51.20
2017-08-26T11:32:44.762Z,51.80
2017-08-26T11:35:12.348Z,51.70
2017-08-26T11:37:42.983Z,51.30
2017-08-26T11:40:10.515Z,51.50
2017-08-26T11:42:38.439Z,52.10
2017-08-26T11:45:07.060Z,51.50
2017-08-26T11:47:34.655Z,51.40
2017-08-26T11:50:02.213Z,51.60
2017-08-26T11:52:29.820Z,51.40
2017-08-26T11:54:57.359Z,51.20
2017-08-26T11:57:25.312Z,51.80
2017-08-26T11:59:53.068Z,51.80
2017-08-26T12:02:23.711Z,51.00
2017-08-26T12:04:51.248Z,51.80
2017-08-26T12:07:18.808Z,51.90
2017-08-26T12:09:46.848Z,51.20
2017-08-26T12:12:14.957Z,51.00
2017-08-26T12:14:42.462Z,51.50
2017-08-26T12:17:10.048Z,51.60
2017-08-26T12:19:40.697Z,50.30
2017-08-26T12:22:08.308Z,50.50
2017-08-26T12:24:35.880Z,50.80
2017-08-26T12:27:04.436Z,50.00
2017-08-26T12:29:31.932Z,50.00
2017-08-26T12:31:59.431Z,50.50
2017-08-26T12:34:26.939Z,50.10
2017-08-26T12:36:54.502Z,49.80
2017-08-26T12:39:23.761Z,49.70
2017-08-26T12:41:51.283Z,49.70
2017-08-26T12:44:18.827Z,50.00
2017-08-26T12:46:46.387Z,50.30
2017-08-26T12:49:13.907Z,49.80
2017-08-26T12:51:41.467Z,48.80
2017-08-26T12:54:09.040Z,48.20
2017-08-26T12:56:37.175Z,48.10
2017-08-26T12:59:04.672Z,48.10
2017-08-26T13:01:32.231Z,48.90
2017-08-26T13:03:59.779Z,48.30
2017-08-26T13:06:27.603Z,47.80
2017-08-26T13:08:55.295Z,47.40
2017-08-26T13:11:22.835Z,47.30
2017-08-26T13:13:51.072Z,46.90
2017-08-26T13:16:18.583Z,46.00
2017-08-26T13:18:46.140Z,45.60
2017-08-26T13:21:16.850Z,45.40
2017-08-26T13:23:44.666Z,44.80
2017-08-26T13:26:12.173Z,44.40
2017-08-26T13:28:40.800Z,44.50
2017-08-26T13:31:08.677Z,43.60
2017-08-26T13:33:40.374Z,44.10
2017-08-26T13:36:07.960Z,44.00
2017-08-26T13:38:35.623Z,42.80
2017-08-26T13:41:03.315Z,42.40
2017-08-26T13:43:30.904Z,42.60
2017-08-26T13:46:00.099Z,42.80
2017-08-26T13:48:28.090Z,42.80
2017-08-26T13:50:58.731Z,44.20
2017-08-26T13:53:26.483Z,43.70
2017-08-26T13:55:54.933Z,44.90
2017-08-26T13:58:23.495Z,44.70
2017-08-26T14:00:50.994Z,44.50
2017-08-26T14:03:18.544Z,45.40
2017-08-26T14:05:46.043Z,46.00
2017-08-26T14:08:14.860Z,43.50
2017-08-26T14:10:42.363Z,43.70
2017-08-26T14:13:09.859Z,44.00
2017-08-26T14:15:37.383Z,44.30
2017-08-26T14:18:05.052Z,45.60
2017-08-26T14:20:36.912Z,45.30
2017-08-26T14:23:04.828Z,45.30
2017-08-26T14:25:32.371Z,44.90
2017-08-26T14:27:59.877Z,44.00
2017-08-26T14:30:29.079Z,42.20
2017-08-26T14:32:56.584Z,42.10
2017-08-26T14:35:24.096Z,42.20
2017-08-26T14:37:55.157Z,43.00
2017-08-26T14:40:24.111Z,43.10
2017-08-26T14:42:51.784Z,43.00
2017-08-26T14:45:19.374Z,42.40
2017-08-26T14:47:46.879Z,42.00
2017-08-26T14:50:14.538Z,42.50
2017-08-26T14:52:45.942Z,41.60
2017-08-26T14:55:13.776Z,42.00
2017-08-26T14:57:41.271Z,41.80
2017-08-26T15:00:08.779Z,42.50
2017-08-26T15:02:36.281Z,42.70
2017-08-26T15:05:07.704Z,42.70
2017-08-26T15:07:35.232Z,42.10
2017-08-26T15:10:02.735Z,42.60
2017-08-26T15:12:30.340Z,43.00
2017-08-26T15:14:57.840Z,43.00
2017-08-26T15:17:25.339Z,41.90
2017-08-26T15:19:52.868Z,42.00
2017-08-26T15:22:21.337Z,43.10
2017-08-26T15:24:48.895Z,42.50
2017-08-26T15:27:17.167Z,41.70
2017-08-26T15:29:44.668Z,41.60
2017-08-26T15:32:12.179Z,42.20
2017-08-26T15:34:41.425Z,41.90
2017-08-26T15:37:08.982Z,42.00
2017-08-26T15:39:36.648Z,42.30
2017-08-26T15:42:04.962Z,42.90
2017-08-26T15:44:32.759Z,43.00
2017-08-26T15:47:00.526Z,43.00
2017-08-26T15:49:28.031Z,42.90
2017-08-26T15:51:59.759Z,42.40
2017-08-26T15:54:27.267Z,42.30
2017-08-26T15:56:54.774Z,42.90
2017-08-26T15:59:22.279Z,41.60
2017-08-26T16:01:49.858Z,41.60
2017-08-26T16:04:17.363Z,42.80
2017-08-26T16:06:44.859Z,42.90
2017-08-26T16:09:12.503Z,42.90
2017-08-26T16:11:40.027Z,43.40
2017-08-26T16:14:07.567Z,43.70
2017-08-26T16:16:35.080Z,43.60
2017-08-26T16:19:03.264Z,44.00
2017-08-26T16:21:34.775Z,43.90
2017-08-26T16:24:02.279Z,44.70
2017-08-26T16:26:31.175Z,45.20
2017-08-26T16:28:58.683Z,45.20
2017-08-26T16:31:26.219Z,45.40
2017-08-26T16:33:54.487Z,44.50
2017-08-26T16:36:24.443Z,44.50
2017-08-26T16:38:51.962Z,44.40
2017-08-26T16:41:19.948Z,45.20
2017-08-26T16:43:48.637Z,45.90
2017-08-26T16:46:16.395Z,45.60
2017-08-26T16:48:43.962Z,46.30
2017-08-26T16:51:12.861Z,45.70
2017-08-26T16:53:40.370Z,46.10
2017-08-26T16:56:08.639Z,46.50
2017-08-26T16:58:37.173Z,46.50
2017-08-26T17:01:04.675Z,46.90
2017-08-26T17:03:32.191Z,47.10
2017-08-26T17:05:59.856Z,46.90
2017-08-26T17:08:27.621Z,47.00
2017-08-26T17:10:56.199Z,46.10
2017-08-26T17:13:23.715Z,45.60
2017-08-26T17:15:51.252Z,45.00
2017-08-26T17:18:18.778Z,44.90
2017-08-26T17:20:46.297Z,44.40
2017-08-26T17:23:13.839Z,44.80
2017-08-26T17:25:44.348Z,44.70
2017-08-26T17:28:11.852Z,45.00
2017-08-26T17:30:40.088Z,45.70
2017-08-26T17:33:07.633Z,46.60
2017-08-26T17:35:35.144Z,47.60
2017-08-26T17:38:06.148Z,48.20
2017-08-26T17:40:34.082Z,49.00
2017-08-26T17:43:01.583Z,49.50
2017-08-26T17:45:30.089Z,50.40
2017-08-26T17:47:57.593Z,50.30
2017-08-26T17:50:25.109Z,50.80
2017-08-26T17:52:56.791Z,51.60
2017-08-26T17:55:25.145Z,52.50
2017-08-26T17:57:52.702Z,52.50
2017-08-26T18:00:21.008Z,54.00
2017-08-26T18:02:48.727Z,54.00
2017-08-26T18:05:16.794Z,54.00
2017-08-26T18:07:45.120Z,56.30
2017-08-26T18:10:12.931Z,56.30
2017-08-26T18:12:40.463Z,56.20
2017-08-26T18:15:08.308Z,57.00
2017-08-26T18:17:35.872Z,58.30
2017-08-26T18:20:03.691Z,60.00
2017-08-26T18:22:31.497Z,60.00
2017-08-26T18:25:03.399Z,61.00
2017-08-26T18:27:30.917Z,62.10
2017-08-26T18:29:58.506Z,63.30
2017-08-26T18:32:26.049Z,62.70
2017-08-26T18:34:53.636Z,63.60
2017-08-26T18:37:22.120Z,63.30
2017-08-26T18:39:49.640Z,63.70
2017-08-26T18:42:17.144Z,64.40
2017-08-26T18:44:44.804Z,63.60
2017-08-26T18:47:15.335Z,64.60
2017-08-26T18:49:42.846Z,63.80
2017-08-26T18:52:10.376Z,64.90
2017-08-26T18:54:38.221Z,65.60
2017-08-26T18:57:05.981Z,65.20
2017-08-26T18:59:33.711Z,65.10
2017-08-26T19:02:01.231Z,65.10
2017-08-26T19:04:28.746Z,65.30
2017-08-26T19:06:57.096Z,66.00
2017-08-26T19:09:25.539Z,65.80
2017-08-26T19:11:53.055Z,66.10
2017-08-26T19:14:20.572Z,65.60
2017-08-26T19:16:48.141Z,65.50
2017-08-26T19:19:16.831Z,65.30
2017-08-26T19:21:44.527Z,65.10
2017-08-26T19:24:12.053Z,65.40
2017-08-26T19:26:40.076Z,65.20
2017-08-26T19:29:07.604Z,65.40
2017-08-26T19:31:35.278Z,65.40
2017-08-26T19:34:02.788Z,65.40
2017-08-26T19:36:30.358Z,65.50
2017-08-26T19:38:58.640Z,65.50
2017-08-26T19:41:26.147Z,65.50
2017-08-26T19:43:53.699Z,65.40
2017-08-26T19:46:21.262Z,65.60
2017-08-26T19:48:48.955Z,65.60
2017-08-26T19:51:17.460Z,65.80
2017-08-26T19:53:45.168Z,66.00
2017-08-26T19:56:16.396Z,66.40
2017-08-26T19:58:44.110Z,66.50
2017-08-26T20:01:12.777Z,66.60
2017-08-26T20:03:40.377Z,66.60
2017-08-26T20:06:07.908Z,66.80
2017-08-26T20:08:36.404Z,67.30
2017-08-26T20:11:03.925Z,67.30
2017-08-26T20:13:31.623Z,67.30
2017-08-26T20:15:59.143Z,67.50
2017-08-26T20:18:26.656Z,68.00
2017-08-26T20:20:54.176Z,68.50
2017-08-26T20:23:21.689Z,68.90
2017-08-26T20:25:51.994Z,69.60
2017-08-26T20:28:19.539Z,70.00
2017-08-26T20:30:47.137Z,70.40
2017-08-26T20:33:15.349Z,70.70
2017-08-26T20:35:43.643Z,71.50
2017-08-26T20:38:11.227Z,71.40
2017-08-26T20:40:40.453Z,72.40
2017-08-26T20:43:07.961Z,72.40
2017-08-26T20:45:36.234Z,73.40
2017-08-26T20:48:03.752Z,73.30
2017-08-26T20:50:31.270Z,73.60
2017-08-26T20:52:59.284Z,74.10
2017-08-26T20:55:26.805Z,74.70
2017-08-26T20:57:54.318Z,75.00
2017-08-26T21:00:21.820Z,75.50
2017-08-26T21:02:49.348Z,76.00
2017-08-26T21:05:16.864Z,76.60
2017-08-26T21:07:44.372Z,77.10
2017-08-26T21:10:13.608Z,77.60
2017-08-26T21:12:41.119Z,77.60
2017-08-26T21:15:09.444Z,78.10
2017-08-26T21:17:37.812Z,78.10
2017-08-26T21:20:06.176Z,79.00
2017-08-26T21:22:33.824Z,78.90
2017-08-26T21:25:01.331Z,79.10
2017-08-26T21:27:28.839Z,79.50
2017-08-26T21:29:57.186Z,79.90
2017-08-26T21:32:24.701Z,80.40
2017-08-26T21:34:52.237Z,80.70
2017-08-26T21:37:19.836Z,81.20
2017-08-26T21:39:47.350Z,81.30
2017-08-26T21:42:15.143Z,81.80
2017-08-26T21:44:42.653Z,82.00
2017-08-26T21:47:10.527Z,82.40
2017-08-26T21:49:38.067Z,82.80
2017-08-26T21:52:05.601Z,83.20
2017-08-26T21:54:33.614Z,83.50
2017-08-26T21:57:02.688Z,83.70
2017-08-26T21:59:30.226Z,84.30
2017-08-26T22:01:57.744Z,84.40
2017-08-26T22:04:25.291Z,84.60
2017-08-26T22:06:53.101Z,84.90
2017-08-26T22:09:20.891Z,85.30
2017-08-26T22:11:48.948Z,85.40
2017-08-26T22:14:16.768Z,85.50
2017-08-26T22:16:45.047Z,85.90
2017-08-26T22:19:12.564Z,85.80
2017-08-26T22:21:40.067Z,86.00
2017-08-26T22:24:08.516Z,86.20
2017-08-26T22:26:36.048Z,86.00
2017-08-26T22:29:03.563Z,86.40
2017-08-26T22:31:31.096Z,86.70
2017-08-26T22:33:58.784Z,87.10
2017-08-26T22:36:26.286Z,87.20
2017-08-26T22:38:53.991Z,87.50
2017-08-26T22:41:21.718Z,87.60
2017-08-26T22:43:49.232Z,87.80
2017-08-26T22:46:16.751Z,89.10
2017-08-26T22:48:44.265Z,88.30
2017-08-26T22:51:11.777Z,88.60
2017-08-26T22:53:39.403Z,89.00
2017-08-26T22:56:06.911Z,88.70
2017-08-26T22:58:36.449Z,89.30
2017-08-26T23:01:04.135Z,90.00
2017-08-26T23:03:31.687Z,90.00
2017-08-26T23:06:00.131Z,90.00
2017-08-26T23:08:27.639Z,90.10
2017-08-26T23:10:55.160Z,90.10
2017-08-26T23:13:26.103Z,90.20
2017-08-26T23:15:53.832Z,90.40
2017-08-26T23:18:21.399Z,90.50
2017-08-26T23:20:49.511Z,90.50
2017-08-26T23:23:17.419Z,90.30
2017-08-26T23:25:44.927Z,90.20
2017-08-26T23:28:12.432Z,90.20
2017-08-26T23:30:43.531Z,90.40
2017-08-26T23:33:11.057Z,90.60
2017-08-26T23:35:38.771Z,90.70
2017-08-26T23:38:06.276Z,90.70
2017-08-26T23:40:33.780Z,90.80
2017-08-26T23:43:01.440Z,90.80
2017-08-26T23:45:28.964Z,90.70
2017-08-26T23:47:56.484Z,90.80
2017-08-26T23:50:24.031Z,90.80
2017-08-26T23:52:52.198Z,90.90
2017-08-26T23:55:20.259Z,91.00
2017-08-26T23:57:47.772Z,91.30
